sensor_id;sensor_type;location;lat;lon;timestamp;temperature;humidity
7240;DHT22;3661;53.288;10.458;2023-10-31T00:01:30;11.40;99.90
7240;DHT22;3661;53.288;10.458;2023-10-31T00:04:04;11.40;99.90
7240;DHT22;3661;53.288;10.458;2023-10-31T00:06:36;11.40;99.90
7240;DHT22;3661;53.288;10.458;2023-10-31T00:09:08;11.40;99.90
7240;DHT22;3661;53.288;10.458;2023-10-31T00:11:41;11.40;99.90
7240;DHT22;3661;53.288;10.458;2023-10-31T00:14:13;11.40;99.90
7240;DHT22;3661;53.288;10.458;2023-10-31T00:16:45;11.30;99.90
7240;DHT22;3661;53.288;10.458;2023-10-31T00:19:20;11.30;99.90
7240;DHT22;3661;53.288;10.458;2023-10-31T00:21:52;11.30;99.90
7240;DHT22;3661;53.288;10.458;2023-10-31T00:24:24;11.30;99.90
7240;DHT22;3661;53.288;10.458;2023-10-31T00:26:57;11.30;99.90
7240;DHT22;3661;53.288;10.458;2023-10-31T00:29:29;11.30;99.90
7240;DHT22;3661;53.288;10.458;2023-10-31T00:32:01;11.30;99.90
7240;DHT22;3661;53.288;10.458;2023-10-31T00:34:34;11.30;99.90
7240;DHT22;3661;53.288;10.458;2023-10-31T00:37:06;11.30;99.90
7240;DHT22;3661;53.288;10.458;2023-10-31T00:39:38;11.30;99.90
7240;DHT22;3661;53.288;10.458;2023-10-31T00:42:10;11.30;99.90
7240;DHT22;3661;53.288;10.458;2023-10-31T00:44:43;11.30;99.90
7240;DHT22;3661;53.288;10.458;2023-10-31T00:47:15;11.30;99.90
7240;DHT22;3661;53.288;10.458;2023-10-31T00:49:49;11.30;99.90
7240;DHT22;3661;53.288;10.458;2023-10-31T00:52:23;11.30;99.90
7240;DHT22;3661;53.288;10.458;2023-10-31T00:54:55;11.30;99.90
7240;DHT22;3661;53.288;10.458;2023-10-31T00:57:27;11.20;99.90
7240;DHT22;3661;53.288;10.458;2023-10-31T01:00:00;11.20;99.90
7240;DHT22;3661;53.288;10.458;2023-10-31T01:02:32;11.20;99.90
7240;DHT22;3661;53.288;10.458;2023-10-31T01:05:06;11.20;99.90
7240;DHT22;3661;53.288;10.458;2023-10-31T01:07:39;11.20;99.90
7240;DHT22;3661;53.288;10.458;2023-10-31T01:10:11;11.20;99.90
7240;DHT22;3661;53.288;10.458;2023-10-31T01:12:43;11.20;99.90
7240;DHT22;3661;53.288;10.458;2023-10-31T01:15:15;11.20;99.90
7240;DHT22;3661;53.288;10.458;2023-10-31T01:17:47;11.20;99.90
7240;DHT22;3661;53.288;10.458;2023-10-31T01:20:21;11.20;99.90
7240;DHT22;3661;53.288;10.458;2023-10-31T01:22:53;11.20;99.90
7240;DHT22;3661;53.288;10.458;2023-10-31T01:25:25;11.20;99.90
7240;DHT22;3661;53.288;10.458;2023-10-31T01:27:57;11.20;99.90
7240;DHT22;3661;53.288;10.458;2023-10-31T01:30:29;11.20;99.90
7240;DHT22;3661;53.288;10.458;2023-10-31T01:33:01;11.20;99.90
7240;DHT22;3661;53.288;10.458;2023-10-31T01:35:35;11.20;99.90
7240;DHT22;3661;53.288;10.458;2023-10-31T01:38:07;11.20;99.90
7240;DHT22;3661;53.288;10.458;2023-10-31T01:40:39;11.20;99.90
7240;DHT22;3661;53.288;10.458;2023-10-31T01:43:11;11.20;99.90
7240;DHT22;3661;53.288;10.458;2023-10-31T01:45:43;11.20;99.90
7240;DHT22;3661;53.288;10.458;2023-10-31T01:48:15;11.20;99.90
7240;DHT22;3661;53.288;10.458;2023-10-31T01:50:51;11.20;99.90
7240;DHT22;3661;53.288;10.458;2023-10-31T01:53:26;11.20;99.90
7240;DHT22;3661;53.288;10.458;2023-10-31T01:55:59;11.20;99.90
7240;DHT22;3661;53.288;10.458;2023-10-31T01:58:34;11.20;99.90
7240;DHT22;3661;53.288;10.458;2023-10-31T02:01:07;11.20;99.90
7240;DHT22;3661;53.288;10.458;2023-10-31T02:03:39;11.30;99.90
7240;DHT22;3661;53.288;10.458;2023-10-31T02:06:13;11.20;99.90
7240;DHT22;3661;53.288;10.458;2023-10-31T02:08:47;11.20;99.90
7240;DHT22;3661;53.288;10.458;2023-10-31T02:11:22;11.20;99.90
7240;DHT22;3661;53.288;10.458;2023-10-31T02:13:55;11.20;99.90
7240;DHT22;3661;53.288;10.458;2023-10-31T02:16:27;11.20;99.90
7240;DHT22;3661;53.288;10.458;2023-10-31T02:18:59;11.20;99.90
7240;DHT22;3661;53.288;10.458;2023-10-31T02:24:10;11.30;99.90
7240;DHT22;3661;53.288;10.458;2023-10-31T02:26:43;11.30;99.90
7240;DHT22;3661;53.288;10.458;2023-10-31T02:29:15;11.30;99.90
7240;DHT22;3661;53.288;10.458;2023-10-31T02:31:47;11.30;99.90
7240;DHT22;3661;53.288;10.458;2023-10-31T02:34:19;11.30;99.90
7240;DHT22;3661;53.288;10.458;2023-10-31T02:36:52;11.30;99.90
7240;DHT22;3661;53.288;10.458;2023-10-31T02:39:26;11.30;99.90
7240;DHT22;3661;53.288;10.458;2023-10-31T02:42:01;11.30;99.90
7240;DHT22;3661;53.288;10.458;2023-10-31T02:44:33;11.30;99.90
7240;DHT22;3661;53.288;10.458;2023-10-31T02:47:05;11.30;99.90
7240;DHT22;3661;53.288;10.458;2023-10-31T02:49:38;11.30;99.90
7240;DHT22;3661;53.288;10.458;2023-10-31T02:52:10;11.30;99.90
7240;DHT22;3661;53.288;10.458;2023-10-31T02:54:44;11.30;99.90
7240;DHT22;3661;53.288;10.458;2023-10-31T02:57:16;11.30;99.90
7240;DHT22;3661;53.288;10.458;2023-10-31T02:59:48;11.30;99.90
7240;DHT22;3661;53.288;10.458;2023-10-31T03:02:20;11.30;99.90
7240;DHT22;3661;53.288;10.458;2023-10-31T03:04:53;11.30;99.90
7240;DHT22;3661;53.288;10.458;2023-10-31T03:07:25;11.30;99.90
7240;DHT22;3661;53.288;10.458;2023-10-31T03:09:58;11.30;99.90
7240;DHT22;3661;53.288;10.458;2023-10-31T03:12:30;11.30;99.90
7240;DHT22;3661;53.288;10.458;2023-10-31T03:15:03;11.30;99.90
7240;DHT22;3661;53.288;10.458;2023-10-31T03:17:35;11.30;99.90
7240;DHT22;3661;53.288;10.458;2023-10-31T03:20:09;11.30;99.90
7240;DHT22;3661;53.288;10.458;2023-10-31T03:22:41;11.30;99.90
7240;DHT22;3661;53.288;10.458;2023-10-31T03:25:16;11.40;99.90
7240;DHT22;3661;53.288;10.458;2023-10-31T03:27:48;11.40;99.90
7240;DHT22;3661;53.288;10.458;2023-10-31T03:30:21;11.30;99.90
7240;DHT22;3661;53.288;10.458;2023-10-31T03:32:56;11.40;99.90
7240;DHT22;3661;53.288;10.458;2023-10-31T03:35:28;11.40;99.90
7240;DHT22;3661;53.288;10.458;2023-10-31T03:38:01;11.40;99.90
7240;DHT22;3661;53.288;10.458;2023-10-31T03:40:35;11.40;99.90
7240;DHT22;3661;53.288;10.458;2023-10-31T03:43:07;11.40;99.90
7240;DHT22;3661;53.288;10.458;2023-10-31T03:45:40;11.40;99.90
7240;DHT22;3661;53.288;10.458;2023-10-31T03:48:12;11.40;99.90
7240;DHT22;3661;53.288;10.458;2023-10-31T03:50:44;11.40;99.90
7240;DHT22;3661;53.288;10.458;2023-10-31T03:53:17;11.40;99.90
7240;DHT22;3661;53.288;10.458;2023-10-31T03:55:50;11.40;99.90
7240;DHT22;3661;53.288;10.458;2023-10-31T03:58:22;11.40;99.90
7240;DHT22;3661;53.288;10.458;2023-10-31T04:00:54;11.40;99.90
7240;DHT22;3661;53.288;10.458;2023-10-31T04:03:26;11.40;99.90
7240;DHT22;3661;53.288;10.458;2023-10-31T04:05:58;11.40;99.90
7240;DHT22;3661;53.288;10.458;2023-10-31T04:08:31;11.40;99.90
7240;DHT22;3661;53.288;10.458;2023-10-31T04:11:04;11.40;99.90
7240;DHT22;3661;53.288;10.458;2023-10-31T04:13:36;11.40;99.90
7240;DHT22;3661;53.288;10.458;2023-10-31T04:16:08;11.40;99.90
7240;DHT22;3661;53.288;10.458;2023-10-31T04:18:41;11.40;99.90
7240;DHT22;3661;53.288;10.458;2023-10-31T04:21:13;11.40;99.90
7240;DHT22;3661;53.288;10.458;2023-10-31T04:23:45;11.50;99.90
7240;DHT22;3661;53.288;10.458;2023-10-31T04:26:19;11.50;99.90
7240;DHT22;3661;53.288;10.458;2023-10-31T04:28:51;11.50;99.90
7240;DHT22;3661;53.288;10.458;2023-10-31T04:31:25;11.50;99.90
7240;DHT22;3661;53.288;10.458;2023-10-31T04:33:57;11.50;99.90
7240;DHT22;3661;53.288;10.458;2023-10-31T04:36:30;11.50;99.90
7240;DHT22;3661;53.288;10.458;2023-10-31T04:39:03;11.50;99.90
7240;DHT22;3661;53.288;10.458;2023-10-31T04:41:37;11.50;99.90
7240;DHT22;3661;53.288;10.458;2023-10-31T04:44:09;11.50;99.90
7240;DHT22;3661;53.288;10.458;2023-10-31T04:46:42;11.50;99.90
7240;DHT22;3661;53.288;10.458;2023-10-31T04:49:14;11.50;99.90
7240;DHT22;3661;53.288;10.458;2023-10-31T04:51:46;11.50;99.90
7240;DHT22;3661;53.288;10.458;2023-10-31T04:54:18;11.50;99.90
7240;DHT22;3661;53.288;10.458;2023-10-31T04:56:51;11.50;99.90
7240;DHT22;3661;53.288;10.458;2023-10-31T04:59:23;11.50;99.90
7240;DHT22;3661;53.288;10.458;2023-10-31T05:01:56;11.50;99.90
7240;DHT22;3661;53.288;10.458;2023-10-31T05:04:28;11.50;99.90
7240;DHT22;3661;53.288;10.458;2023-10-31T05:07:00;11.50;99.90
7240;DHT22;3661;53.288;10.458;2023-10-31T05:09:32;11.50;99.90
7240;DHT22;3661;53.288;10.458;2023-10-31T05:12:06;11.50;99.90
7240;DHT22;3661;53.288;10.458;2023-10-31T05:14:40;11.50;99.90
7240;DHT22;3661;53.288;10.458;2023-10-31T05:17:12;11.50;99.90
7240;DHT22;3661;53.288;10.458;2023-10-31T05:19:45;11.50;99.90
7240;DHT22;3661;53.288;10.458;2023-10-31T05:22:17;11.50;99.90
7240;DHT22;3661;53.288;10.458;2023-10-31T05:24:49;11.60;99.90
7240;DHT22;3661;53.288;10.458;2023-10-31T05:27:23;11.60;99.90
7240;DHT22;3661;53.288;10.458;2023-10-31T05:29:56;11.60;99.90
7240;DHT22;3661;53.288;10.458;2023-10-31T05:32:31;11.60;99.90
7240;DHT22;3661;53.288;10.458;2023-10-31T05:35:04;11.60;99.90
7240;DHT22;3661;53.288;10.458;2023-10-31T05:37:36;11.60;99.90
7240;DHT22;3661;53.288;10.458;2023-10-31T05:40:09;11.60;99.90
7240;DHT22;3661;53.288;10.458;2023-10-31T05:42:43;11.60;99.90
7240;DHT22;3661;53.288;10.458;2023-10-31T05:45:16;11.70;99.90
7240;DHT22;3661;53.288;10.458;2023-10-31T05:47:49;11.60;99.90
7240;DHT22;3661;53.288;10.458;2023-10-31T05:50:21;11.60;99.90
7240;DHT22;3661;53.288;10.458;2023-10-31T05:52:53;11.60;99.90
7240;DHT22;3661;53.288;10.458;2023-10-31T05:55:26;11.60;99.90
7240;DHT22;3661;53.288;10.458;2023-10-31T05:58:00;11.60;99.90
7240;DHT22;3661;53.288;10.458;2023-10-31T06:00:33;11.60;99.90
7240;DHT22;3661;53.288;10.458;2023-10-31T06:03:08;11.60;99.90
7240;DHT22;3661;53.288;10.458;2023-10-31T06:05:40;11.60;99.90
7240;DHT22;3661;53.288;10.458;2023-10-31T06:08:15;11.70;99.90
7240;DHT22;3661;53.288;10.458;2023-10-31T06:10:47;11.60;99.90
7240;DHT22;3661;53.288;10.458;2023-10-31T06:13:21;11.70;99.90
7240;DHT22;3661;53.288;10.458;2023-10-31T06:15:54;11.70;99.90
7240;DHT22;3661;53.288;10.458;2023-10-31T06:18:26;11.70;99.90
7240;DHT22;3661;53.288;10.458;2023-10-31T06:20:58;11.70;99.90
7240;DHT22;3661;53.288;10.458;2023-10-31T06:23:31;11.70;99.90
7240;DHT22;3661;53.288;10.458;2023-10-31T06:26:03;11.70;99.90
7240;DHT22;3661;53.288;10.458;2023-10-31T06:28:38;11.70;99.90
7240;DHT22;3661;53.288;10.458;2023-10-31T06:31:11;11.70;99.90
7240;DHT22;3661;53.288;10.458;2023-10-31T06:33:45;11.70;99.90
7240;DHT22;3661;53.288;10.458;2023-10-31T06:36:17;11.70;99.90
7240;DHT22;3661;53.288;10.458;2023-10-31T06:38:50;11.60;99.90
7240;DHT22;3661;53.288;10.458;2023-10-31T06:41:22;11.60;99.90
7240;DHT22;3661;53.288;10.458;2023-10-31T06:43:56;11.60;99.90
7240;DHT22;3661;53.288;10.458;2023-10-31T06:46:28;11.60;99.90
7240;DHT22;3661;53.288;10.458;2023-10-31T06:49:00;11.60;99.90
7240;DHT22;3661;53.288;10.458;2023-10-31T06:51:35;11.60;99.90
7240;DHT22;3661;53.288;10.458;2023-10-31T06:54:07;11.60;99.90
7240;DHT22;3661;53.288;10.458;2023-10-31T06:56:39;11.50;99.90
7240;DHT22;3661;53.288;10.458;2023-10-31T06:59:12;11.50;99.90
7240;DHT22;3661;53.288;10.458;2023-10-31T07:01:45;11.50;99.90
7240;DHT22;3661;53.288;10.458;2023-10-31T07:04:17;11.50;99.90
7240;DHT22;3661;53.288;10.458;2023-10-31T07:06:49;11.50;99.90
7240;DHT22;3661;53.288;10.458;2023-10-31T07:09:27;11.50;99.90
7240;DHT22;3661;53.288;10.458;2023-10-31T07:11:59;11.40;99.90
7240;DHT22;3661;53.288;10.458;2023-10-31T07:14:33;11.40;99.90
7240;DHT22;3661;53.288;10.458;2023-10-31T07:17:05;11.40;99.90
7240;DHT22;3661;53.288;10.458;2023-10-31T07:19:38;11.40;99.90
7240;DHT22;3661;53.288;10.458;2023-10-31T07:22:11;11.30;99.90
7240;DHT22;3661;53.288;10.458;2023-10-31T07:24:43;11.30;99.90
7240;DHT22;3661;53.288;10.458;2023-10-31T07:27:15;11.30;99.90
7240;DHT22;3661;53.288;10.458;2023-10-31T07:29:48;11.30;99.90
7240;DHT22;3661;53.288;10.458;2023-10-31T07:32:20;11.20;99.90
7240;DHT22;3661;53.288;10.458;2023-10-31T07:34:54;11.20;99.90
7240;DHT22;3661;53.288;10.458;2023-10-31T07:37:26;11.20;99.90
7240;DHT22;3661;53.288;10.458;2023-10-31T07:39:58;11.20;99.90
7240;DHT22;3661;53.288;10.458;2023-10-31T07:42:30;11.20;99.90
7240;DHT22;3661;53.288;10.458;2023-10-31T07:45:04;11.20;99.90
7240;DHT22;3661;53.288;10.458;2023-10-31T07:47:36;11.20;99.90
7240;DHT22;3661;53.288;10.458;2023-10-31T07:50:09;11.10;99.90
7240;DHT22;3661;53.288;10.458;2023-10-31T07:52:41;11.10;99.90
7240;DHT22;3661;53.288;10.458;2023-10-31T07:55:14;11.10;99.90
7240;DHT22;3661;53.288;10.458;2023-10-31T07:57:46;11.10;99.90
7240;DHT22;3661;53.288;10.458;2023-10-31T08:00:20;11.10;99.90
7240;DHT22;3661;53.288;10.458;2023-10-31T08:02:53;11.10;99.90
7240;DHT22;3661;53.288;10.458;2023-10-31T08:05:25;11.10;99.90
7240;DHT22;3661;53.288;10.458;2023-10-31T08:07:57;11.10;99.90
7240;DHT22;3661;53.288;10.458;2023-10-31T08:10:30;11.00;99.90
7240;DHT22;3661;53.288;10.458;2023-10-31T08:13:03;11.00;99.90
7240;DHT22;3661;53.288;10.458;2023-10-31T08:15:36;11.00;99.90
7240;DHT22;3661;53.288;10.458;2023-10-31T08:18:08;11.00;99.90
7240;DHT22;3661;53.288;10.458;2023-10-31T08:20:41;11.00;99.90
7240;DHT22;3661;53.288;10.458;2023-10-31T08:23:14;11.00;99.90
7240;DHT22;3661;53.288;10.458;2023-10-31T08:25:46;11.00;99.90
7240;DHT22;3661;53.288;10.458;2023-10-31T08:28:18;11.00;99.90
7240;DHT22;3661;53.288;10.458;2023-10-31T08:30:51;11.00;99.90
7240;DHT22;3661;53.288;10.458;2023-10-31T08:33:23;11.00;99.90
7240;DHT22;3661;53.288;10.458;2023-10-31T08:35:56;11.00;99.90
7240;DHT22;3661;53.288;10.458;2023-10-31T08:38:28;11.00;99.90
7240;DHT22;3661;53.288;10.458;2023-10-31T08:41:00;10.90;99.90
7240;DHT22;3661;53.288;10.458;2023-10-31T08:43:32;10.90;99.90
7240;DHT22;3661;53.288;10.458;2023-10-31T08:46:06;10.90;99.90
7240;DHT22;3661;53.288;10.458;2023-10-31T08:48:38;10.90;99.90
7240;DHT22;3661;53.288;10.458;2023-10-31T08:51:10;10.90;99.90
7240;DHT22;3661;53.288;10.458;2023-10-31T08:53:42;10.90;99.90
7240;DHT22;3661;53.288;10.458;2023-10-31T08:56:14;10.90;99.90
7240;DHT22;3661;53.288;10.458;2023-10-31T08:58:46;10.90;99.90
7240;DHT22;3661;53.288;10.458;2023-10-31T09:01:20;10.90;99.90
7240;DHT22;3661;53.288;10.458;2023-10-31T09:03:52;10.80;99.90
7240;DHT22;3661;53.288;10.458;2023-10-31T09:06:24;10.80;99.90
7240;DHT22;3661;53.288;10.458;2023-10-31T09:08:56;10.80;99.90
7240;DHT22;3661;53.288;10.458;2023-10-31T09:11:28;10.80;99.90
7240;DHT22;3661;53.288;10.458;2023-10-31T09:14:09;10.80;99.90
7240;DHT22;3661;53.288;10.458;2023-10-31T09:16:58;10.80;99.90
7240;DHT22;3661;53.288;10.458;2023-10-31T09:19:30;10.80;99.90
7240;DHT22;3661;53.288;10.458;2023-10-31T09:22:02;10.80;99.90
7240;DHT22;3661;53.288;10.458;2023-10-31T09:24:35;10.70;99.90
7240;DHT22;3661;53.288;10.458;2023-10-31T09:27:07;10.70;99.90
7240;DHT22;3661;53.288;10.458;2023-10-31T09:30:33;10.70;99.90
7240;DHT22;3661;53.288;10.458;2023-10-31T09:32:38;10.70;99.90
7240;DHT22;3661;53.288;10.458;2023-10-31T09:35:12;10.70;99.90
7240;DHT22;3661;53.288;10.458;2023-10-31T09:37:44;10.70;99.90
7240;DHT22;3661;53.288;10.458;2023-10-31T09:40:19;10.70;99.90
7240;DHT22;3661;53.288;10.458;2023-10-31T09:42:53;10.70;99.90
7240;DHT22;3661;53.288;10.458;2023-10-31T09:45:27;10.70;99.90
7240;DHT22;3661;53.288;10.458;2023-10-31T09:48:01;10.70;99.90
7240;DHT22;3661;53.288;10.458;2023-10-31T09:50:37;10.70;99.90
7240;DHT22;3661;53.288;10.458;2023-10-31T09:53:14;10.70;99.90
7240;DHT22;3661;53.288;10.458;2023-10-31T09:55:47;10.70;99.90
7240;DHT22;3661;53.288;10.458;2023-10-31T09:58:25;10.70;99.90
7240;DHT22;3661;53.288;10.458;2023-10-31T10:00:57;10.70;99.90
7240;DHT22;3661;53.288;10.458;2023-10-31T10:03:31;10.70;99.90
7240;DHT22;3661;53.288;10.458;2023-10-31T10:06:04;10.70;99.90
7240;DHT22;3661;53.288;10.458;2023-10-31T10:08:37;10.70;99.90
7240;DHT22;3661;53.288;10.458;2023-10-31T10:11:10;10.70;99.90
7240;DHT22;3661;53.288;10.458;2023-10-31T10:13:43;10.70;99.90
7240;DHT22;3661;53.288;10.458;2023-10-31T10:16:28;10.70;99.90
7240;DHT22;3661;53.288;10.458;2023-10-31T10:19:16;10.70;99.90
7240;DHT22;3661;53.288;10.458;2023-10-31T10:21:51;10.80;99.90
7240;DHT22;3661;53.288;10.458;2023-10-31T10:24:24;10.80;99.90
7240;DHT22;3661;53.288;10.458;2023-10-31T10:26:56;10.80;99.90
7240;DHT22;3661;53.288;10.458;2023-10-31T10:29:28;10.80;99.90
7240;DHT22;3661;53.288;10.458;2023-10-31T10:32:00;10.80;99.90
7240;DHT22;3661;53.288;10.458;2023-10-31T10:34:34;10.80;99.90
7240;DHT22;3661;53.288;10.458;2023-10-31T10:37:06;10.80;99.90
7240;DHT22;3661;53.288;10.458;2023-10-31T10:39:40;10.80;99.90
7240;DHT22;3661;53.288;10.458;2023-10-31T10:42:13;10.80;99.90
7240;DHT22;3661;53.288;10.458;2023-10-31T10:44:50;10.80;99.90
7240;DHT22;3661;53.288;10.458;2023-10-31T10:47:24;10.80;99.90
7240;DHT22;3661;53.288;10.458;2023-10-31T10:49:59;10.90;99.90
7240;DHT22;3661;53.288;10.458;2023-10-31T10:52:41;10.90;99.90
7240;DHT22;3661;53.288;10.458;2023-10-31T10:55:19;10.90;99.90
7240;DHT22;3661;53.288;10.458;2023-10-31T10:58:00;10.90;99.90
7240;DHT22;3661;53.288;10.458;2023-10-31T11:00:32;11.00;99.90
7240;DHT22;3661;53.288;10.458;2023-10-31T11:03:06;11.00;99.90
7240;DHT22;3661;53.288;10.458;2023-10-31T11:05:40;11.00;99.90
7240;DHT22;3661;53.288;10.458;2023-10-31T11:08:12;11.10;99.90
7240;DHT22;3661;53.288;10.458;2023-10-31T11:10:45;11.10;99.90
7240;DHT22;3661;53.288;10.458;2023-10-31T11:13:22;11.20;99.90
7240;DHT22;3661;53.288;10.458;2023-10-31T11:16:01;11.20;99.90
7240;DHT22;3661;53.288;10.458;2023-10-31T11:18:36;11.20;99.90
7240;DHT22;3661;53.288;10.458;2023-10-31T11:21:10;11.20;99.90
7240;DHT22;3661;53.288;10.458;2023-10-31T11:23:42;11.20;99.90
7240;DHT22;3661;53.288;10.458;2023-10-31T11:26:14;11.20;99.90
7240;DHT22;3661;53.288;10.458;2023-10-31T11:28:51;11.20;99.90
7240;DHT22;3661;53.288;10.458;2023-10-31T11:31:23;11.30;99.90
7240;DHT22;3661;53.288;10.458;2023-10-31T11:33:55;11.30;99.90
7240;DHT22;3661;53.288;10.458;2023-10-31T11:36:32;11.20;99.90
7240;DHT22;3661;53.288;10.458;2023-10-31T11:39:11;11.20;99.90
7240;DHT22;3661;53.288;10.458;2023-10-31T11:41:49;11.20;99.90
7240;DHT22;3661;53.288;10.458;2023-10-31T11:44:23;11.20;99.90
7240;DHT22;3661;53.288;10.458;2023-10-31T11:46:58;11.20;99.90
7240;DHT22;3661;53.288;10.458;2023-10-31T11:49:46;11.10;99.90
7240;DHT22;3661;53.288;10.458;2023-10-31T11:52:26;11.10;99.90
7240;DHT22;3661;53.288;10.458;2023-10-31T11:54:58;11.10;99.90
7240;DHT22;3661;53.288;10.458;2023-10-31T11:57:30;11.20;99.90
7240;DHT22;3661;53.288;10.458;2023-10-31T12:00:02;11.20;99.90
7240;DHT22;3661;53.288;10.458;2023-10-31T12:02:35;11.20;99.90
7240;DHT22;3661;53.288;10.458;2023-10-31T12:05:08;11.20;99.90
7240;DHT22;3661;53.288;10.458;2023-10-31T12:07:45;11.20;99.90
7240;DHT22;3661;53.288;10.458;2023-10-31T12:10:22;11.20;99.90
7240;DHT22;3661;53.288;10.458;2023-10-31T12:12:55;11.30;99.90
7240;DHT22;3661;53.288;10.458;2023-10-31T12:15:27;11.30;99.90
7240;DHT22;3661;53.288;10.458;2023-10-31T12:17:59;11.30;99.90
7240;DHT22;3661;53.288;10.458;2023-10-31T12:20:31;11.30;99.90
7240;DHT22;3661;53.288;10.458;2023-10-31T12:23:05;11.30;99.90
7240;DHT22;3661;53.288;10.458;2023-10-31T12:25:46;11.30;99.90
7240;DHT22;3661;53.288;10.458;2023-10-31T12:28:18;11.30;99.90
7240;DHT22;3661;53.288;10.458;2023-10-31T12:30:52;11.30;99.90
7240;DHT22;3661;53.288;10.458;2023-10-31T12:33:26;11.30;99.90
7240;DHT22;3661;53.288;10.458;2023-10-31T12:35:59;11.30;99.90
7240;DHT22;3661;53.288;10.458;2023-10-31T12:38:33;11.30;99.90
7240;DHT22;3661;53.288;10.458;2023-10-31T12:41:05;11.20;99.90
7240;DHT22;3661;53.288;10.458;2023-10-31T12:43:37;11.20;99.90
7240;DHT22;3661;53.288;10.458;2023-10-31T12:46:28;11.20;99.90
7240;DHT22;3661;53.288;10.458;2023-10-31T12:49:01;11.20;99.90
7240;DHT22;3661;53.288;10.458;2023-10-31T12:51:33;11.20;99.90
7240;DHT22;3661;53.288;10.458;2023-10-31T12:54:06;11.20;99.90
7240;DHT22;3661;53.288;10.458;2023-10-31T12:56:40;11.20;99.90
7240;DHT22;3661;53.288;10.458;2023-10-31T12:59:13;11.20;99.90
7240;DHT22;3661;53.288;10.458;2023-10-31T13:01:45;11.20;99.90
7240;DHT22;3661;53.288;10.458;2023-10-31T13:04:25;11.20;99.90
7240;DHT22;3661;53.288;10.458;2023-10-31T13:06:58;11.20;99.90
7240;DHT22;3661;53.288;10.458;2023-10-31T13:09:32;11.20;99.90
7240;DHT22;3661;53.288;10.458;2023-10-31T13:12:06;11.10;99.90
7240;DHT22;3661;53.288;10.458;2023-10-31T13:14:39;11.10;99.90
7240;DHT22;3661;53.288;10.458;2023-10-31T13:17:11;11.10;99.90
7240;DHT22;3661;53.288;10.458;2023-10-31T13:19:43;11.10;99.90
7240;DHT22;3661;53.288;10.458;2023-10-31T13:22:15;11.10;99.90
7240;DHT22;3661;53.288;10.458;2023-10-31T13:24:48;11.10;99.90
7240;DHT22;3661;53.288;10.458;2023-10-31T13:27:21;11.10;99.90
7240;DHT22;3661;53.288;10.458;2023-10-31T13:29:55;11.10;99.90
7240;DHT22;3661;53.288;10.458;2023-10-31T13:32:28;11.10;99.90
7240;DHT22;3661;53.288;10.458;2023-10-31T13:35:00;11.10;99.90
7240;DHT22;3661;53.288;10.458;2023-10-31T13:37:33;11.10;99.90
7240;DHT22;3661;53.288;10.458;2023-10-31T13:40:07;11.10;99.90
7240;DHT22;3661;53.288;10.458;2023-10-31T13:42:40;11.10;99.90
7240;DHT22;3661;53.288;10.458;2023-10-31T13:45:12;11.10;99.90
7240;DHT22;3661;53.288;10.458;2023-10-31T13:47:44;11.10;99.90
7240;DHT22;3661;53.288;10.458;2023-10-31T13:50:16;11.10;99.90
7240;DHT22;3661;53.288;10.458;2023-10-31T13:52:49;11.10;99.90
7240;DHT22;3661;53.288;10.458;2023-10-31T13:55:22;11.10;99.90
7240;DHT22;3661;53.288;10.458;2023-10-31T13:57:56;11.10;99.90
7240;DHT22;3661;53.288;10.458;2023-10-31T14:00:28;11.10;99.90
7240;DHT22;3661;53.288;10.458;2023-10-31T14:03:00;11.10;99.90
7240;DHT22;3661;53.288;10.458;2023-10-31T14:05:32;11.20;99.90
7240;DHT22;3661;53.288;10.458;2023-10-31T14:08:04;11.20;99.90
7240;DHT22;3661;53.288;10.458;2023-10-31T14:10:38;11.10;99.90
7240;DHT22;3661;53.288;10.458;2023-10-31T14:13:11;11.10;99.90
7240;DHT22;3661;53.288;10.458;2023-10-31T14:15:43;11.10;99.90
7240;DHT22;3661;53.288;10.458;2023-10-31T14:18:15;11.10;99.90
7240;DHT22;3661;53.288;10.458;2023-10-31T14:20:47;11.10;99.90
7240;DHT22;3661;53.288;10.458;2023-10-31T14:23:19;11.10;99.90
7240;DHT22;3661;53.288;10.458;2023-10-31T14:25:53;11.10;99.90
7240;DHT22;3661;53.288;10.458;2023-10-31T14:28:25;11.10;99.90
7240;DHT22;3661;53.288;10.458;2023-10-31T14:30:57;11.10;99.90
7240;DHT22;3661;53.288;10.458;2023-10-31T14:33:29;11.10;99.90
7240;DHT22;3661;53.288;10.458;2023-10-31T14:36:03;11.10;99.90
7240;DHT22;3661;53.288;10.458;2023-10-31T14:38:35;11.10;99.90
7240;DHT22;3661;53.288;10.458;2023-10-31T14:41:09;11.00;99.90
7240;DHT22;3661;53.288;10.458;2023-10-31T14:43:41;11.00;99.90
7240;DHT22;3661;53.288;10.458;2023-10-31T14:46:13;11.00;99.90
7240;DHT22;3661;53.288;10.458;2023-10-31T14:48:45;11.00;99.90
7240;DHT22;3661;53.288;10.458;2023-10-31T14:51:17;11.00;99.90
7240;DHT22;3661;53.288;10.458;2023-10-31T14:53:50;11.00;99.90
7240;DHT22;3661;53.288;10.458;2023-10-31T14:56:23;11.00;99.90
7240;DHT22;3661;53.288;10.458;2023-10-31T14:58:57;10.90;99.90
7240;DHT22;3661;53.288;10.458;2023-10-31T15:01:29;10.90;99.90
7240;DHT22;3661;53.288;10.458;2023-10-31T15:04:01;10.80;99.90
7240;DHT22;3661;53.288;10.458;2023-10-31T15:06:33;10.80;99.90
7240;DHT22;3661;53.288;10.458;2023-10-31T15:09:07;10.70;99.90
7240;DHT22;3661;53.288;10.458;2023-10-31T15:11:41;10.60;99.90
7240;DHT22;3661;53.288;10.458;2023-10-31T15:14:13;10.50;99.90
7240;DHT22;3661;53.288;10.458;2023-10-31T15:16:45;10.50;99.90
7240;DHT22;3661;53.288;10.458;2023-10-31T15:19:17;10.40;99.90
7240;DHT22;3661;53.288;10.458;2023-10-31T15:21:49;10.30;99.90
7240;DHT22;3661;53.288;10.458;2023-10-31T15:24:21;10.20;99.90
7240;DHT22;3661;53.288;10.458;2023-10-31T15:26:55;10.10;99.90
7240;DHT22;3661;53.288;10.458;2023-10-31T15:29:27;10.00;99.90
7240;DHT22;3661;53.288;10.458;2023-10-31T15:31:59;9.90;99.90
7240;DHT22;3661;53.288;10.458;2023-10-31T15:34:31;9.80;99.90
7240;DHT22;3661;53.288;10.458;2023-10-31T15:37:03;9.70;99.90
7240;DHT22;3661;53.288;10.458;2023-10-31T15:39:35;9.60;99.90
7240;DHT22;3661;53.288;10.458;2023-10-31T15:42:09;9.50;99.90
7240;DHT22;3661;53.288;10.458;2023-10-31T15:44:41;9.50;99.90
7240;DHT22;3661;53.288;10.458;2023-10-31T15:47:15;9.40;99.90
7240;DHT22;3661;53.288;10.458;2023-10-31T15:49:48;9.40;99.90
7240;DHT22;3661;53.288;10.458;2023-10-31T15:52:20;9.30;99.90
7240;DHT22;3661;53.288;10.458;2023-10-31T15:54:52;9.20;99.90
7240;DHT22;3661;53.288;10.458;2023-10-31T15:57:26;9.10;99.90
7240;DHT22;3661;53.288;10.458;2023-10-31T15:59:58;9.10;99.90
7240;DHT22;3661;53.288;10.458;2023-10-31T16:02:30;9.00;99.90
7240;DHT22;3661;53.288;10.458;2023-10-31T16:05:03;8.90;99.90
7240;DHT22;3661;53.288;10.458;2023-10-31T16:07:35;8.80;99.90
7240;DHT22;3661;53.288;10.458;2023-10-31T16:10:09;8.70;99.90
7240;DHT22;3661;53.288;10.458;2023-10-31T16:12:43;8.70;99.90
7240;DHT22;3661;53.288;10.458;2023-10-31T16:15:15;8.60;99.90
7240;DHT22;3661;53.288;10.458;2023-10-31T16:17:47;8.50;99.90
7240;DHT22;3661;53.288;10.458;2023-10-31T16:20:20;8.50;99.90
7240;DHT22;3661;53.288;10.458;2023-10-31T16:22:52;8.40;99.90
7240;DHT22;3661;53.288;10.458;2023-10-31T16:25:24;8.30;99.90
7240;DHT22;3661;53.288;10.458;2023-10-31T16:27:59;8.30;99.90